createdAt,value
2022-10-19T00:01:30.109Z,102083.09
2022-10-19T00:03:56.940Z,102082.31
2022-10-19T00:06:26.759Z,102085.81
2022-10-19T00:08:53.580Z,102082.88
2022-10-19T00:11:20.344Z,102084.97
2022-10-19T00:13:47.090Z,102094.16
2022-10-19T00:16:13.846Z,102088.53
2022-10-19T00:18:40.804Z,102073.97
2022-10-19T00:21:07.573Z,102074.06
2022-10-19T00:23:34.397Z,102096.25
2022-10-19T00:26:01.159Z,102080.91
2022-10-19T00:28:27.933Z,102085.44
2022-10-19T00:30:54.743Z,102084.69
2022-10-19T00:33:22.417Z,102084.91
2022-10-19T00:35:49.796Z,102088.78
2022-10-19T00:38:16.839Z,102079.09
2022-10-19T00:40:43.619Z,102080.59
2022-10-19T00:43:10.385Z,102079.28
2022-10-19T00:45:37.140Z,102079.28
2022-10-19T00:48:03.885Z,102074.50
2022-10-19T00:50:30.624Z,102080.59
2022-10-19T00:52:57.450Z,102086.81
2022-10-19T00:55:24.203Z,102085.56
2022-10-19T01:00:22.845Z,102094.06
2022-10-19T01:02:49.585Z,102088.38
2022-10-19T01:05:16.321Z,102099.16
2022-10-19T01:07:43.089Z,102103.56
2022-10-19T01:10:09.865Z,102101.25
2022-10-19T01:12:36.639Z,102094.75
2022-10-19T01:15:03.396Z,102095.88
2022-10-19T01:17:30.212Z,102098.09
2022-10-19T01:19:57.028Z,102095.97
2022-10-19T01:22:23.805Z,102091.53
2022-10-19T01:24:50.607Z,102098.06
2022-10-19T01:27:17.364Z,102093.19
2022-10-19T01:29:44.227Z,102091.16
2022-10-19T01:32:10.969Z,102096.34
2022-10-19T01:34:37.732Z,102094.81
2022-10-19T01:37:04.484Z,102091.41
2022-10-19T01:39:31.225Z,102091.31
2022-10-19T01:41:57.974Z,102084.06
2022-10-19T01:44:24.724Z,102086.41
2022-10-19T01:46:51.466Z,102078.78
2022-10-19T01:49:18.209Z,102073.03
2022-10-19T01:51:45.005Z,102063.31
2022-10-19T01:54:11.911Z,102069.34
2022-10-19T01:56:38.724Z,102055.69
2022-10-19T01:59:05.481Z,102059.25
2022-10-19T02:01:32.365Z,102064.44
2022-10-19T02:03:59.128Z,102057.22
2022-10-19T02:06:25.911Z,102055.91
2022-10-19T02:08:52.645Z,102053.88
2022-10-19T02:11:19.448Z,102057.91
2022-10-19T02:13:46.248Z,102055.50
2022-10-19T02:16:12.984Z,102052.56
2022-10-19T02:18:39.744Z,102059.16
2022-10-19T02:21:06.494Z,102050.25
2022-10-19T02:23:33.973Z,102043.13
2022-10-19T02:26:00.724Z,102042.50
2022-10-19T02:28:27.484Z,102040.94
2022-10-19T02:30:54.293Z,102046.53
2022-10-19T02:33:21.053Z,102048.00
2022-10-19T02:35:48.152Z,102039.50
2022-10-19T02:38:14.891Z,102053.25
2022-10-19T02:40:41.625Z,102058.59
2022-10-19T02:43:08.385Z,102050.13
2022-10-19T02:45:35.121Z,102059.53
2022-10-19T02:48:01.872Z,102060.47
2022-10-19T02:50:28.666Z,102062.03
2022-10-19T02:52:55.400Z,102063.03
2022-10-19T02:55:22.138Z,102069.94
2022-10-19T02:57:48.901Z,102063.84
2022-10-19T03:00:15.652Z,102068.00
2022-10-19T03:02:42.411Z,102075.00
2022-10-19T03:05:09.168Z,102064.28
2022-10-19T03:07:36.351Z,102069.25
2022-10-19T03:10:03.341Z,102072.41
2022-10-19T03:12:30.130Z,102078.91
2022-10-19T03:14:56.900Z,102066.38
2022-10-19T03:17:23.669Z,102062.56
2022-10-19T03:19:50.443Z,102061.53
2022-10-19T03:22:17.228Z,102073.66
2022-10-19T03:24:43.975Z,102077.50
2022-10-19T03:27:10.725Z,102076.53
2022-10-19T03:29:37.510Z,102076.81
2022-10-19T03:32:04.284Z,102076.91
2022-10-19T03:34:31.044Z,102077.38
2022-10-19T03:36:59.082Z,102082.69
2022-10-19T03:39:25.876Z,102082.81
2022-10-19T03:41:52.631Z,102081.56
2022-10-19T03:44:19.376Z,102074.91
2022-10-19T03:46:46.129Z,102086.56
2022-10-19T03:49:12.920Z,102090.59
2022-10-19T03:51:39.734Z,102089.03
2022-10-19T03:54:06.519Z,102093.69
2022-10-19T03:56:33.289Z,102097.50
2022-10-19T03:59:00.052Z,102093.19
2022-10-19T04:01:26.904Z,102098.91
2022-10-19T04:03:53.763Z,102100.75
2022-10-19T04:06:22.089Z,102102.09
2022-10-19T04:08:49.058Z,102101.56
2022-10-19T04:11:15.813Z,102108.59
2022-10-19T04:13:42.561Z,102108.97
2022-10-19T04:16:09.313Z,102113.84
2022-10-19T04:18:36.099Z,102109.25
2022-10-19T04:21:02.842Z,102107.19
2022-10-19T04:23:29.609Z,102111.94
2022-10-19T04:25:56.366Z,102110.19
2022-10-19T04:28:23.138Z,102104.34
2022-10-19T04:30:49.877Z,102105.81
2022-10-19T04:33:16.652Z,102114.00
2022-10-19T04:35:43.398Z,102105.75
2022-10-19T04:38:10.145Z,102105.03
2022-10-19T04:40:36.996Z,102114.03
2022-10-19T04:43:03.728Z,102113.66
2022-10-19T04:45:30.459Z,102110.34
2022-10-19T04:47:57.218Z,102110.25
2022-10-19T04:50:23.985Z,102115.63
2022-10-19T04:52:50.758Z,102116.00
2022-10-19T04:55:17.509Z,102114.38
2022-10-19T04:57:44.240Z,102124.47
2022-10-19T05:00:10.999Z,102126.28
2022-10-19T05:02:37.769Z,102120.25
2022-10-19T05:05:04.520Z,102126.97
2022-10-19T05:07:31.457Z,102123.63
2022-10-19T05:09:58.458Z,102130.78
2022-10-19T05:12:25.213Z,102118.97
2022-10-19T05:14:51.952Z,102123.69
2022-10-19T05:17:18.719Z,102125.28
2022-10-19T05:19:45.462Z,102122.78
2022-10-19T05:22:12.201Z,102129.09
2022-10-19T05:24:38.965Z,102118.63
2022-10-19T05:27:05.708Z,102119.97
2022-10-19T05:29:33.853Z,102123.53
2022-10-19T05:32:00.668Z,102119.53
2022-10-19T05:34:27.424Z,102125.66
2022-10-19T05:36:54.231Z,102124.69
2022-10-19T05:39:20.992Z,102126.56
2022-10-19T05:41:47.743Z,102127.41
2022-10-19T05:44:14.526Z,102132.59
2022-10-19T05:46:41.308Z,102126.22
2022-10-19T05:49:08.094Z,102134.09
2022-10-19T05:51:34.840Z,102126.16
2022-10-19T05:54:01.632Z,102130.06
2022-10-19T05:56:28.393Z,102129.81
2022-10-19T05:58:55.134Z,102131.13
2022-10-19T06:01:21.918Z,102131.09
2022-10-19T06:03:48.705Z,102138.06
2022-10-19T06:06:15.448Z,102132.34
2022-10-19T06:08:42.212Z,102135.81
2022-10-19T06:11:09.001Z,102134.94
2022-10-19T06:13:35.825Z,102136.81
2022-10-19T06:16:02.649Z,102141.28
2022-10-19T06:18:29.526Z,102145.75
2022-10-19T06:20:56.327Z,102150.09
2022-10-19T06:23:23.115Z,102151.19
2022-10-19T06:25:49.902Z,102145.00
2022-10-19T06:28:16.649Z,102146.16
2022-10-19T06:30:43.509Z,102157.97
2022-10-19T06:33:10.408Z,102157.56
2022-10-19T06:35:38.237Z,102163.09
2022-10-19T06:38:05.022Z,102161.53
2022-10-19T06:40:31.883Z,102167.16
2022-10-19T06:42:58.897Z,102167.41
2022-10-19T06:45:25.657Z,102159.53
2022-10-19T06:47:52.411Z,102169.91
2022-10-19T06:50:20.322Z,102166.06
2022-10-19T06:52:47.136Z,102170.34
2022-10-19T06:55:13.960Z,102161.22
2022-10-19T06:57:40.717Z,102174.00
2022-10-19T07:00:08.215Z,102174.56
2022-10-19T07:02:34.969Z,102174.34
2022-10-19T07:05:06.078Z,102169.22
2022-10-19T07:07:34.120Z,102173.75
2022-10-19T07:10:01.052Z,102178.88
2022-10-19T07:12:27.919Z,102179.63
2022-10-19T07:14:55.491Z,102179.59
2022-10-19T07:17:22.242Z,102180.78
2022-10-19T07:19:48.979Z,102190.63
2022-10-19T07:22:21.186Z,102180.56
2022-10-19T07:24:52.123Z,102193.88
2022-10-19T07:27:18.903Z,102190.69
2022-10-19T07:29:45.639Z,102199.31
2022-10-19T07:32:12.377Z,102196.94
2022-10-19T07:34:39.135Z,102193.53
2022-10-19T07:37:05.900Z,102193.16
2022-10-19T07:39:32.796Z,102198.75
2022-10-19T07:41:59.601Z,102201.38
2022-10-19T07:44:26.373Z,102205.72
2022-10-19T07:46:53.138Z,102213.97
2022-10-19T07:49:20.629Z,102211.94
2022-10-19T07:51:47.451Z,102213.00
2022-10-19T07:54:14.229Z,102215.78
2022-10-19T07:56:41.055Z,102209.28
2022-10-19T07:59:07.808Z,102213.13
2022-10-19T08:01:34.620Z,102215.50
2022-10-19T08:06:48.147Z,102211.75
2022-10-19T08:09:33.352Z,102207.56
2022-10-19T08:12:01.708Z,102213.28
2022-10-19T08:14:28.472Z,102216.91
2022-10-19T08:16:55.211Z,102217.69
2022-10-19T08:19:22.576Z,102217.13
2022-10-19T08:21:49.395Z,102225.34
2022-10-19T08:24:16.182Z,102217.97
2022-10-19T08:26:42.928Z,102225.44
2022-10-19T08:29:09.717Z,102223.00
2022-10-19T08:31:36.481Z,102220.13
2022-10-19T08:34:03.260Z,102224.41
2022-10-19T08:36:35.381Z,102226.41
2022-10-19T08:39:02.213Z,102226.97
2022-10-19T08:41:28.954Z,102222.94
2022-10-19T08:43:55.716Z,102223.97
2022-10-19T08:46:22.534Z,102234.34
2022-10-19T08:48:49.268Z,102234.34
2022-10-19T08:51:16.037Z,102227.66
2022-10-19T08:53:42.823Z,102233.00
2022-10-19T08:56:12.419Z,102231.16
2022-10-19T08:58:44.830Z,102230.03
2022-10-19T09:01:11.610Z,102226.69
2022-10-19T09:06:25.129Z,102240.75
2022-10-19T09:08:51.913Z,102238.63
2022-10-19T09:11:18.715Z,102239.97
2022-10-19T09:14:04.293Z,102242.22
2022-10-19T09:16:31.718Z,102239.16
2022-10-19T09:18:58.484Z,102241.13
2022-10-19T09:21:31.068Z,102235.41
2022-10-19T09:24:04.697Z,102241.16
2022-10-19T09:26:31.459Z,102250.28
2022-10-19T09:28:58.421Z,102247.41
2022-10-19T09:31:29.096Z,102243.09
2022-10-19T09:33:57.234Z,102240.44
2022-10-19T09:36:33.260Z,102243.78
2022-10-19T09:39:10.818Z,102239.97
2022-10-19T09:41:37.574Z,102247.56
2022-10-19T09:44:04.317Z,102246.44
2022-10-19T09:46:31.312Z,102243.97
2022-10-19T09:48:58.060Z,102246.34
2022-10-19T09:51:24.922Z,102237.78
2022-10-19T09:53:51.677Z,102239.09
2022-10-19T09:56:18.482Z,102245.25
2022-10-19T09:58:45.225Z,102239.88
2022-10-19T10:01:12.040Z,102232.53
2022-10-19T10:03:43.319Z,102244.56
2022-10-19T10:06:10.256Z,102242.59
2022-10-19T10:08:37.134Z,102236.19
2022-10-19T10:11:04.137Z,102240.78
2022-10-19T10:13:30.909Z,102232.94
2022-10-19T10:15:57.774Z,102236.56
2022-10-19T10:18:24.548Z,102237.91
2022-10-19T10:20:51.332Z,102234.28
2022-10-19T10:23:18.110Z,102239.09
2022-10-19T10:25:44.872Z,102242.16
2022-10-19T10:28:11.617Z,102245.09
2022-10-19T10:30:38.415Z,102242.63
2022-10-19T10:33:14.601Z,102252.41
2022-10-19T10:35:53.836Z,102252.44
2022-10-19T10:38:20.608Z,102247.91
2022-10-19T10:40:47.434Z,102242.00
2022-10-19T10:43:14.207Z,102239.63
2022-10-19T10:45:40.967Z,102246.03
2022-10-19T10:50:39.480Z,102230.28
2022-10-19T10:53:06.241Z,102236.84
2022-10-19T10:55:33.005Z,102233.72
2022-10-19T10:57:59.849Z,102234.78
2022-10-19T11:00:26.640Z,102223.25
2022-10-19T11:02:53.417Z,102223.75
2022-10-19T11:05:20.260Z,102226.25
2022-10-19T11:07:46.999Z,102221.16
2022-10-19T11:10:13.755Z,102218.59
2022-10-19T11:12:40.573Z,102219.22
2022-10-19T11:15:07.373Z,102223.88
2022-10-19T11:17:34.293Z,102222.63
2022-10-19T11:20:01.288Z,102211.38
2022-10-19T11:22:30.901Z,102212.09
2022-10-19T11:24:57.661Z,102219.50
2022-10-19T11:27:24.418Z,102216.28
2022-10-19T11:29:51.163Z,102220.53
2022-10-19T11:32:17.948Z,102219.13
2022-10-19T11:34:44.706Z,102227.81
2022-10-19T11:37:11.462Z,102227.56
2022-10-19T11:39:38.205Z,102226.38
2022-10-19T11:42:06.272Z,102214.56
2022-10-19T11:44:33.016Z,102215.97
2022-10-19T11:46:59.772Z,102216.69
2022-10-19T11:49:26.545Z,102216.34
2022-10-19T11:51:57.269Z,102206.34
2022-10-19T11:54:24.009Z,102205.66
2022-10-19T11:57:03.194Z,102204.59
2022-10-19T11:59:31.641Z,102200.69
2022-10-19T12:01:58.436Z,102196.72
2022-10-19T12:04:25.265Z,102195.28
2022-10-19T12:06:52.011Z,102190.66
2022-10-19T12:09:18.841Z,102198.94
2022-10-19T12:11:45.613Z,102190.75
2022-10-19T12:14:12.364Z,102183.41
2022-10-19T12:16:39.179Z,102179.25
2022-10-19T12:19:05.917Z,102177.81
2022-10-19T12:21:32.733Z,102169.47
2022-10-19T12:23:59.506Z,102167.16
2022-10-19T12:26:26.255Z,102171.44
2022-10-19T12:28:53.037Z,102170.56
2022-10-19T12:31:19.800Z,102167.22
2022-10-19T12:33:47.224Z,102165.59
2022-10-19T12:36:14.127Z,102165.69
2022-10-19T12:38:44.010Z,102157.44
2022-10-19T12:43:52.693Z,102151.25
2022-10-19T12:46:19.491Z,102142.78
2022-10-19T12:48:46.277Z,102141.34
2022-10-19T12:51:13.159Z,102137.13
2022-10-19T12:53:39.959Z,102132.88
2022-10-19T12:56:06.761Z,102122.53
2022-10-19T12:58:33.553Z,102124.00
2022-10-19T13:01:00.389Z,102122.16
2022-10-19T13:03:29.047Z,102115.28
2022-10-19T13:05:57.138Z,102114.59
2022-10-19T13:08:24.079Z,102115.97
2022-10-19T13:10:54.082Z,102110.66
2022-10-19T13:13:20.839Z,102119.31
2022-10-19T13:15:47.589Z,102106.22
2022-10-19T13:18:15.661Z,102106.50
2022-10-19T13:20:42.413Z,102104.22
2022-10-19T13:23:09.167Z,102102.84
2022-10-19T13:25:35.949Z,102103.31
2022-10-19T13:28:02.858Z,102109.69
2022-10-19T13:30:29.696Z,102109.94
2022-10-19T13:32:56.514Z,102109.53
2022-10-19T13:35:23.373Z,102119.31
2022-10-19T13:37:50.117Z,102110.06
2022-10-19T13:40:20.681Z,102113.06
2022-10-19T13:42:51.233Z,102112.31
2022-10-19T13:45:17.984Z,102108.63
2022-10-19T13:47:47.411Z,102107.06
2022-10-19T13:50:14.177Z,102102.34
2022-10-19T13:52:40.913Z,102106.16
2022-10-19T13:55:07.690Z,102106.13
2022-10-19T13:57:35.132Z,102107.03
2022-10-19T14:00:02.062Z,102110.19
2022-10-19T14:02:28.811Z,102115.69
2022-10-19T14:04:55.570Z,102114.34
2022-10-19T14:07:22.305Z,102114.06
2022-10-19T14:09:49.054Z,102113.00
2022-10-19T14:12:15.825Z,102105.03
2022-10-19T14:17:14.303Z,102100.66
2022-10-19T14:19:41.114Z,102099.00
2022-10-19T14:22:07.860Z,102098.44
2022-10-19T14:24:34.657Z,102091.22
2022-10-19T14:27:01.544Z,102097.94
2022-10-19T14:29:28.510Z,102091.31
2022-10-19T14:31:55.285Z,102096.97
2022-10-19T14:34:22.072Z,102095.44
2022-10-19T14:36:48.829Z,102101.06
2022-10-19T14:39:15.596Z,102094.94
2022-10-19T14:41:42.344Z,102097.34
2022-10-19T14:44:09.077Z,102105.41
2022-10-19T14:46:35.822Z,102096.03
2022-10-19T14:49:02.619Z,102090.50
2022-10-19T14:51:30.136Z,102088.09
2022-10-19T14:53:56.879Z,102088.06
2022-10-19T14:56:23.653Z,102093.41
2022-10-19T14:58:50.438Z,102088.34
2022-10-19T15:01:17.202Z,102089.44
2022-10-19T15:03:44.153Z,102092.66
2022-10-19T15:06:10.892Z,102091.06
2022-10-19T15:08:39.872Z,102096.72
2022-10-19T15:11:06.681Z,102094.34
2022-10-19T15:13:33.463Z,102087.84
2022-10-19T15:16:00.206Z,102089.31
2022-10-19T15:18:48.894Z,102079.47
2022-10-19T15:21:13.716Z,102080.88
2022-10-19T15:23:40.519Z,102082.94
2022-10-19T15:26:16.465Z,102085.25
2022-10-19T15:28:43.829Z,102083.28
2022-10-19T15:31:10.578Z,102084.59
2022-10-19T15:33:37.325Z,102074.19
2022-10-19T15:36:04.094Z,102078.22
2022-10-19T15:38:32.464Z,102074.09
2022-10-19T15:40:59.249Z,102083.09
2022-10-19T15:43:26.018Z,102078.13
2022-10-19T15:45:52.770Z,102081.91
2022-10-19T15:48:19.554Z,102081.78
2022-10-19T15:50:47.810Z,102075.06
2022-10-19T15:53:14.544Z,102070.88
2022-10-19T15:55:41.284Z,102072.78
2022-10-19T15:58:08.093Z,102079.69
2022-10-19T16:00:34.829Z,102072.72
2022-10-19T16:03:01.620Z,102070.22
2022-10-19T16:05:28.377Z,102074.28
2022-10-19T16:07:55.253Z,102080.00
2022-10-19T16:10:22.072Z,102066.22
2022-10-19T16:12:48.823Z,102069.16
2022-10-19T16:15:22.148Z,102076.16
2022-10-19T16:17:48.921Z,102072.28
2022-10-19T16:20:15.675Z,102068.97
2022-10-19T16:22:42.452Z,102073.13
2022-10-19T16:25:09.208Z,102072.13
2022-10-19T16:27:36.273Z,102073.38
2022-10-19T16:30:03.313Z,102065.84
2022-10-19T16:32:30.137Z,102071.22
2022-10-19T16:34:57.127Z,102070.25
2022-10-19T16:37:23.923Z,102072.50
2022-10-19T16:39:50.663Z,102069.59
2022-10-19T16:42:17.418Z,102073.22
2022-10-19T16:44:44.201Z,102073.72
2022-10-19T16:47:10.993Z,102068.22
2022-10-19T16:49:37.833Z,102080.16
2022-10-19T16:52:06.008Z,102078.78
2022-10-19T16:54:32.777Z,102077.31
2022-10-19T16:56:59.531Z,102077.38
2022-10-19T16:59:26.318Z,102074.34
2022-10-19T17:01:53.823Z,102075.28
2022-10-19T17:04:20.895Z,102070.56
2022-10-19T17:06:47.681Z,102072.06
2022-10-19T17:09:40.191Z,102073.00
2022-10-19T17:12:01.339Z,102073.66
2022-10-19T17:14:28.067Z,102066.19
2022-10-19T17:16:54.812Z,102079.75
2022-10-19T17:19:21.582Z,102078.84
2022-10-19T17:21:49.465Z,102077.31
2022-10-19T17:24:21.129Z,102076.56
2022-10-19T17:26:48.638Z,102082.00
2022-10-19T17:29:15.417Z,102077.69
2022-10-19T17:31:42.211Z,102080.84
2022-10-19T17:34:09.350Z,102082.56
2022-10-19T17:36:36.135Z,102076.50
2022-10-19T17:39:02.934Z,102070.56
2022-10-19T17:41:29.697Z,102080.84
2022-10-19T17:43:56.683Z,102084.69
2022-10-19T17:46:23.496Z,102080.53
2022-10-19T17:48:50.295Z,102083.66
2022-10-19T17:51:17.072Z,102079.16
2022-10-19T17:53:43.818Z,102074.56
2022-10-19T17:56:10.605Z,102073.88
2022-10-19T17:58:39.874Z,102085.25
2022-10-19T18:01:06.880Z,102077.84
2022-10-19T18:03:33.636Z,102083.59
2022-10-19T18:06:00.398Z,102081.34
2022-10-19T18:08:27.215Z,102088.19
2022-10-19T18:10:54.018Z,102086.03
2022-10-19T18:13:20.772Z,102084.94
2022-10-19T18:15:47.581Z,102083.59
2022-10-19T18:18:14.338Z,102079.69
2022-10-19T18:20:41.088Z,102078.81
2022-10-19T18:23:07.837Z,102080.66
2022-10-19T18:25:52.916Z,102083.81
2022-10-19T18:28:20.837Z,102079.59
2022-10-19T18:30:47.638Z,102085.22
2022-10-19T18:33:14.405Z,102082.75
2022-10-19T18:35:41.216Z,102074.66
2022-10-19T18:38:08.001Z,102074.75
2022-10-19T18:40:34.751Z,102066.50
2022-10-19T18:43:01.492Z,102066.13
2022-10-19T18:45:28.313Z,102069.25
2022-10-19T18:47:55.064Z,102073.34
2022-10-19T18:50:21.852Z,102079.88
2022-10-19T18:52:48.633Z,102074.09
2022-10-19T18:55:15.428Z,102069.78
2022-10-19T18:57:42.177Z,102070.25
2022-10-19T19:00:08.938Z,102066.09
2022-10-19T19:02:46.320Z,102074.63
2022-10-19T19:05:13.458Z,102065.41
2022-10-19T19:07:40.209Z,102064.06
2022-10-19T19:10:06.953Z,102060.59
2022-10-19T19:12:34.281Z,102069.91
2022-10-19T19:15:01.330Z,102068.22
2022-10-19T19:17:28.117Z,102066.66
2022-10-19T19:19:54.897Z,102064.66
2022-10-19T19:22:25.754Z,102063.47
2022-10-19T19:24:52.996Z,102066.69
2022-10-19T19:27:21.910Z,102073.91
2022-10-19T19:29:49.135Z,102069.75
2022-10-19T19:32:15.969Z,102065.03
2022-10-19T19:34:42.730Z,102078.34
2022-10-19T19:37:11.214Z,102075.88
2022-10-19T19:39:38.153Z,102084.63
2022-10-19T19:42:04.924Z,102080.28
2022-10-19T19:44:31.701Z,102081.28
2022-10-19T19:46:58.508Z,102079.56
2022-10-19T19:49:25.309Z,102075.00
2022-10-19T19:51:52.098Z,102074.22
2022-10-19T19:54:18.870Z,102080.97
2022-10-19T19:56:45.651Z,102069.75
2022-10-19T19:59:12.417Z,102067.91
2022-10-19T20:01:39.447Z,102067.13
2022-10-19T20:04:06.411Z,102060.53
2022-10-19T20:06:33.160Z,102055.94
2022-10-19T20:08:59.936Z,102061.03
2022-10-19T20:11:26.756Z,102061.03
2022-10-19T20:13:53.510Z,102066.91
2022-10-19T20:16:22.656Z,102066.91
2022-10-19T20:18:51.987Z,102068.06
2022-10-19T20:21:18.769Z,102074.16
2022-10-19T20:23:45.746Z,102067.22
2022-10-19T20:26:12.697Z,102067.72
2022-10-19T20:28:39.444Z,102058.22
2022-10-19T20:31:06.184Z,102055.75
2022-10-19T20:33:32.945Z,102051.19
2022-10-19T20:35:59.689Z,102049.31
2022-10-19T20:38:27.591Z,102042.66
2022-10-19T20:40:54.543Z,102045.91
2022-10-19T20:43:21.346Z,102047.13
2022-10-19T20:45:48.108Z,102037.03
2022-10-19T20:48:14.868Z,102033.06
2022-10-19T20:50:41.609Z,102045.19
2022-10-19T20:53:09.230Z,102040.94
2022-10-19T20:55:36.006Z,102034.72
2022-10-19T20:58:02.782Z,102034.97
2022-10-19T21:00:29.588Z,102034.31
2022-10-19T21:02:56.396Z,102034.47
2022-10-19T21:05:23.251Z,102028.22
2022-10-19T21:07:50.029Z,102025.97
2022-10-19T21:10:16.818Z,102029.78
2022-10-19T21:12:43.580Z,102022.75
2022-10-19T21:15:10.327Z,102023.28
2022-10-19T21:17:37.169Z,102016.38
2022-10-19T21:20:03.917Z,102020.31
2022-10-19T21:22:33.326Z,102021.25
2022-10-19T21:25:02.673Z,102015.66
2022-10-19T21:27:29.447Z,102016.25
2022-10-19T21:29:56.194Z,102018.16
2022-10-19T21:32:22.944Z,102021.97
2022-10-19T21:34:49.804Z,102014.38
2022-10-19T21:37:16.566Z,102009.53
2022-10-19T21:39:43.385Z,102008.53
2022-10-19T21:42:10.293Z,102006.16
2022-10-19T21:44:37.041Z,102001.81
2022-10-19T21:47:03.857Z,102008.97
2022-10-19T21:49:30.602Z,101989.91
2022-10-19T21:51:57.466Z,101995.00
2022-10-19T21:54:29.276Z,101996.81
2022-10-19T21:56:57.566Z,101997.78
2022-10-19T21:59:24.318Z,101995.28
2022-10-19T22:01:51.163Z,101993.66
2022-10-19T22:04:18.037Z,102002.66
2022-10-19T22:06:44.836Z,102003.06
2022-10-19T22:09:11.671Z,102005.22
2022-10-19T22:11:38.546Z,101987.28
2022-10-19T22:14:05.352Z,101996.00
2022-10-19T22:16:32.172Z,101990.25
2022-10-19T22:18:58.955Z,101994.44
2022-10-19T22:21:25.788Z,101991.59
2022-10-19T22:23:53.084Z,101989.97
2022-10-19T22:26:19.843Z,101993.66
2022-10-19T22:28:46.626Z,101996.50
2022-10-19T22:31:13.373Z,101994.28
2022-10-19T22:33:40.109Z,101997.81
2022-10-19T22:36:06.867Z,101994.56
2022-10-19T22:38:33.674Z,101987.41
2022-10-19T22:41:00.412Z,101988.28
2022-10-19T22:43:27.153Z,101989.84
2022-10-19T22:45:53.936Z,101994.03
2022-10-19T22:48:20.677Z,101987.25
2022-10-19T22:50:47.507Z,101987.19
2022-10-19T22:53:14.284Z,101983.47
2022-10-19T22:55:41.048Z,101974.19
2022-10-19T22:58:07.817Z,101976.09
2022-10-19T23:00:34.609Z,101967.94
2022-10-19T23:03:01.435Z,101970.31
2022-10-19T23:05:28.200Z,101961.56
2022-10-19T23:07:54.971Z,101964.94
2022-10-19T23:10:21.744Z,101960.31
2022-10-19T23:12:48.488Z,101946.78
2022-10-19T23:15:15.238Z,101950.34
2022-10-19T23:17:41.970Z,101949.53
2022-10-19T23:20:08.704Z,101951.97
2022-10-19T23:22:35.454Z,101944.91
2022-10-19T23:25:02.233Z,101943.16
2022-10-19T23:27:28.976Z,101944.59
2022-10-19T23:29:55.746Z,101947.09
2022-10-19T23:32:22.755Z,101941.22
2022-10-19T23:34:49.565Z,101940.31
2022-10-19T23:37:16.380Z,101934.56
2022-10-19T23:39:43.170Z,101931.22
2022-10-19T23:42:09.921Z,101935.59
2022-10-19T23:44:36.725Z,101938.41
2022-10-19T23:47:03.481Z,101939.53
2022-10-19T23:49:30.235Z,101941.56
2022-10-19T23:51:57.021Z,101944.25
2022-10-19T23:54:23.769Z,101937.00
2022-10-19T23:56:50.533Z,101934.72
2022-10-19T23:59:17.330Z,101939.94
